Malaga, Spain

3:16 AM CEST on September 21, 2014 (GMT +0200)
IALALHAU2 | Change Station
CLOSE
Current Station
Personal Weather Station
Location: Alhaurin De La Torre, Malaga
Elevation: 360 ft
Nearby Weather Stations

Elev 360 ft 36.66 °N, 4.55 °W | Updated 40 seconds ago

Scattered Clouds
Scattered Clouds
73.0 °F
Feels Like 77 °F
N
0.0
Wind Variable Wind from North
Gusts 0.0 mph

Today
High -- | Low -- °F
--% Chance of Precip.
Yesterday
High -- | Low -- °F
Precip. -- in
8:04 AM 8:16 PM
Waning Crescent, 9% visible
Pressure 30.04 in
Visibility 6.2 miles
Clouds Few 3000 ft
Scattered Clouds 7000 ft
Heat Index 77 °F
Dew Point 41 °F
Humidity 33%
Rainfall -999.00 in
Snow Depth Not available.
UV 0 out of 12
Pollen Not available.
Air Quality Not available.
Flu Activity Not available.
METAR LEMG 210100Z 16005KT 9999 FEW030 SCT070 22/14 Q1017 NOSIG

More Conditions Fewer Conditions

Pressure 30.04 in
Visibility 6.2 miles
Clouds Few 3000 ft
Scattered Clouds 7000 ft
Heat Index 77 °F
Dew Point 41 °F
Humidity 33%
Rainfall -999.00 in
Snow Depth Not available.
UV 0 out of 12
Pollen Not available.
Air Quality Not available.
Flu Activity Not available.
METAR LEMG 210100Z 16005KT 9999 FEW030 SCT070 22/14 Q1017 NOSIG

More Conditions Fewer Conditions

10-Day Weather Forecast

Almanac

Astronomy

Sep. 21, 2014 Rise Set
Actual Time 8:04 AM CEST 8:16 PM CEST
Civil Twilight 7:38 AM CEST 8:42 PM CEST
Nautical Twilight 7:08 AM CEST 9:12 PM CEST
Astronomical Twilight 6:38 AM CEST 9:43 PM CEST
Moon 5:28 AM CEST 6:42 PM CEST
Length of Visible Light 13h 03m
Length of Day
12h 11m
Tomorrow will be 2m 19s shorter.
Waning Crescent, 9% of the Moon is Illuminated
Sep 20
Waning Crescent
Sep 24
New
Oct 1
First Quarter
Oct 8
Full
Oct 15
Last Quarter

Yesterday's Extremes

Country Highs Country Lows

Community

WunderPhotos

Upload Photos

1,755,021 photos uploaded!

WunderBlogs® & News

Nearby

Snow Depth

Not available.

Earthquake Activity

City Distance Mag. Time & Date
No recent earthquake activity has been reported nearby.
Minimum magnitude displayed is 2.5.

Coastal Water Temperatures

Place Temperature
No Stations Reporting

Nearby Weather Stations